Time;durP1;ratioP1;P1;durP2;ratioP2;P2;SDS_P1;SDS_P2;PMS_P1;PMS_P2;Temp;Humidity;BMP_temperature;BMP_pressure;BME280_temperature;BME280_humidity;BME280_pressure;Samples;Min_cycle;Max_cycle;Signal;HPM_P1;HPM_P2
2023/10/22 00:02:21;;;;;;;2.30;2.10;;;;;;;8.66;100.00;96420.22;5017690;28;20752;-79
2023/10/22 00:04:47;;;;;;;2.28;2.03;;;;;;;8.65;100.00;96416.00;5016620;28;20398;-80
2023/10/22 00:07:16;;;;;;;2.15;1.95;;;;;;;8.63;100.00;96427.88;4987018;28;20406;-80
2023/10/22 00:09:42;;;;;;;2.30;2.10;;;;;;;8.63;100.00;96430.53;5004149;28;20437;-80
2023/10/22 00:12:08;;;;;;;2.60;1.90;;;;;;;8.62;100.00;96437.66;5004835;28;20759;-80
2023/10/22 00:14:34;;;;;;;2.15;1.98;;;;;;;8.62;100.00;96434.22;5005028;28;20586;-80
2023/10/22 00:17:03;;;;;;;2.67;2.28;;;;;;;8.58;100.00;96436.56;5005946;28;20405;-79
2023/10/22 00:19:29;;;;;;;3.40;2.10;;;;;;;8.58;100.00;96439.22;5009134;28;20423;-80
2023/10/22 00:21:55;;;;;;;3.22;2.10;;;;;;;8.56;100.00;96448.44;5007908;28;20417;-78
2023/10/22 00:24:21;;;;;;;2.55;1.95;;;;;;;8.52;100.00;96448.16;5004255;28;20554;-80
2023/10/22 00:26:47;;;;;;;2.55;2.22;;;;;;;8.51;100.00;96446.56;5004301;28;20426;-80
2023/10/22 00:29:13;;;;;;;2.17;1.98;;;;;;;8.50;100.00;96445.78;5004025;28;20413;-80
2023/10/22 00:31:40;;;;;;;2.30;2.10;;;;;;;8.49;100.00;96444.19;5004193;28;20402;-80
2023/10/22 00:34:07;;;;;;;2.92;2.00;;;;;;;8.48;100.00;96447.13;5004429;28;20414;-80
2023/10/22 00:36:34;;;;;;;2.30;2.00;;;;;;;8.45;100.00;96437.88;5004344;28;20402;-80
2023/10/22 00:39:01;;;;;;;2.03;1.90;;;;;;;8.44;100.00;96444.19;5007254;28;20421;-80
2023/10/22 00:41:27;;;;;;;2.80;2.25;;;;;;;8.42;100.00;96451.56;5009065;28;20410;-79
2023/10/22 00:43:53;;;;;;;2.35;2.15;;;;;;;8.39;100.00;96449.47;5008290;28;20438;-80
2023/10/22 00:46:22;;;;;;;2.42;2.22;;;;;;;8.35;100.00;96448.38;5008798;28;20411;-81
2023/10/22 00:48:49;;;;;;;3.25;2.50;;;;;;;8.33;100.00;96450.50;5008265;28;20406;-81
2023/10/22 00:51:17;;;;;;;2.30;2.10;;;;;;;8.33;100.00;96455.78;5008674;28;20497;-81
2023/10/22 00:53:45;;;;;;;2.28;2.08;;;;;;;8.32;100.00;96456.03;5008248;28;20411;-81
2023/10/22 00:56:12;;;;;;;2.47;2.28;;;;;;;8.31;100.00;96462.34;5009307;28;20437;-82
2023/10/22 00:58:39;;;;;;;2.20;2.00;;;;;;;8.31;100.00;96462.34;5007743;28;20427;-79
2023/10/22 01:01:07;;;;;;;3.17;2.30;;;;;;;8.27;100.00;96462.03;4999949;28;20413;-82
2023/10/22 01:03:35;;;;;;;4.05;2.10;;;;;;;8.26;100.00;96460.47;5001873;28;20438;-82
2023/10/22 01:06:04;;;;;;;2.38;2.17;;;;;;;8.23;100.00;96463.63;5004377;28;20413;-82
2023/10/22 01:08:33;;;;;;;2.40;2.20;;;;;;;8.20;100.00;96469.38;5007225;28;20398;-82
2023/10/22 01:11:05;;;;;;;2.10;2.00;;;;;;;8.17;100.00;96469.94;5005291;28;20410;-83
2023/10/22 01:13:31;;;;;;;2.20;2.03;;;;;;;8.15;100.00;96464.09;5002979;28;20407;-80
2023/10/22 01:15:57;;;;;;;2.40;2.20;;;;;;;8.12;100.00;96469.88;4999958;28;20402;-82
2023/10/22 01:18:24;;;;;;;3.03;2.00;;;;;;;8.13;100.00;96472.28;4999576;28;20505;-82
2023/10/22 01:20:50;;;;;;;3.50;2.38;;;;;;;8.12;100.00;96475.16;4999350;28;20429;-82
2023/10/22 01:23:18;;;;;;;2.20;2.00;;;;;;;8.11;100.00;96476.22;4999619;28;20390;-82
2023/10/22 01:25:44;;;;;;;2.28;2.03;;;;;;;8.08;100.00;96474.09;4999374;28;20961;-81
2023/10/22 01:28:10;;;;;;;2.90;2.10;;;;;;;8.05;100.00;96475.41;4999122;28;20402;-81
2023/10/22 01:30:36;;;;;;;2.20;2.00;;;;;;;8.01;100.00;96474.34;4999716;28;20927;-82
2023/10/22 01:33:02;;;;;;;2.10;1.90;;;;;;;8.00;100.00;96477.22;5002427;28;20425;-82
2023/10/22 01:35:29;;;;;;;2.40;1.98;;;;;;;7.96;100.00;96468.25;5002340;28;20415;-79
2023/10/22 01:37:55;;;;;;;3.55;2.00;;;;;;;7.94;100.00;96465.88;5011375;28;20864;-82
2023/10/22 01:40:23;;;;;;;3.10;2.50;;;;;;;7.90;100.00;96464.78;5005821;28;20677;-82
2023/10/22 01:42:50;;;;;;;2.67;2.00;;;;;;;7.89;100.00;96470.31;5015114;28;20403;-82
2023/10/22 01:45:16;;;;;;;2.60;2.05;;;;;;;7.87;100.00;96473.22;4999571;28;20501;-81
2023/10/22 01:47:42;;;;;;;3.22;2.20;;;;;;;7.86;100.00;96473.47;4998864;28;20525;-81
2023/10/22 01:50:09;;;;;;;3.97;2.17;;;;;;;7.85;100.00;96479.78;4998026;28;20398;-81
2023/10/22 01:52:36;;;;;;;2.10;1.90;;;;;;;7.86;100.00;96474.25;4998994;28;20406;-81
2023/10/22 01:55:02;;;;;;;2.00;1.80;;;;;;;7.84;100.00;96481.63;4998570;28;20440;-81
2023/10/22 01:57:29;;;;;;;2.10;1.90;;;;;;;7.84;100.00;96480.81;4998487;28;20402;-81
2023/10/22 01:59:55;;;;;;;23.60;2.85;;;;;;;7.81;100.00;96479.50;4998442;28;20938;-82
2023/10/22 02:02:22;;;;;;;2.10;1.90;;;;;;;7.83;100.00;96484.50;4998995;28;20445;-81
2023/10/22 02:04:48;;;;;;;2.17;1.80;;;;;;;7.80;100.00;96485.81;4998386;28;20426;-81
2023/10/22 02:07:14;;;;;;;2.30;2.10;;;;;;;7.80;100.00;96482.38;5000071;28;20875;-81
2023/10/22 02:09:40;;;;;;;2.58;1.83;;;;;;;7.79;100.00;96489.50;5001298;28;20410;-80
2023/10/22 02:12:08;;;;;;;2.58;1.95;;;;;;;7.76;100.00;96488.16;4998822;28;20449;-82
2023/10/22 02:14:36;;;;;;;2.50;2.00;;;;;;;7.75;100.00;96483.13;4999208;28;20786;-81
2023/10/22 02:17:03;;;;;;;2.85;1.83;;;;;;;7.73;100.00;96488.69;4998605;28;20403;-82
2023/10/22 02:19:29;;;;;;;2.30;1.88;;;;;;;7.72;100.00;96492.38;4999064;28;20887;-81
2023/10/22 02:21:55;;;;;;;2.13;1.83;;;;;;;7.71;100.00;96497.88;4999667;28;20485;-81
2023/10/22 02:24:21;;;;;;;2.10;1.80;;;;;;;7.70;100.00;96502.34;4998155;28;20802;-79
2023/10/22 02:26:48;;;;;;;2.58;1.98;;;;;;;7.70;100.00;96499.72;4997900;28;20403;-81
2023/10/22 02:29:14;;;;;;;1.70;1.60;;;;;;;7.70;100.00;96506.81;4998312;28;20442;-81
2023/10/22 02:31:44;;;;;;;1.70;1.60;;;;;;;7.69;100.00;96510.50;4998380;28;20482;-80
2023/10/22 02:34:10;;;;;;;2.88;2.00;;;;;;;7.66;100.00;96516.28;4997883;28;20414;-81
2023/10/22 02:36:37;;;;;;;2.10;1.90;;;;;;;7.65;100.00;96515.50;4998384;28;20398;-81
2023/10/22 02:39:08;;;;;;;3.70;1.95;;;;;;;7.64;100.00;96516.53;4997919;28;20517;-82
2023/10/22 02:41:34;;;;;;;1.77;1.60;;;;;;;7.62;100.00;96516.00;4997438;28;20406;-82
2023/10/22 02:44:00;;;;;;;2.30;1.70;;;;;;;7.60;100.00;96520.72;4997911;28;20853;-81
2023/10/22 02:46:26;;;;;;;1.90;1.80;;;;;;;7.60;100.00;96520.72;4998092;28;20399;-82
2023/10/22 02:48:54;;;;;;;2.17;1.80;;;;;;;7.60;100.00;96512.00;4998162;28;20410;-82
2023/10/22 02:51:22;;;;;;;2.13;1.90;;;;;;;7.59;100.00;96523.63;4997432;28;20410;-81
2023/10/22 02:53:48;;;;;;;1.80;1.70;;;;;;;7.61;100.00;96534.69;4998185;28;20407;-82
2023/10/22 02:56:14;;;;;;;2.08;1.60;;;;;;;7.60;100.00;96535.72;4997978;28;20442;-81
2023/10/22 02:58:40;;;;;;;2.63;1.85;;;;;;;7.61;100.00;96534.69;4998259;28;20509;-81
2023/10/22 03:01:08;;;;;;;2.08;1.80;;;;;;;7.60;100.00;96538.34;4997972;28;20426;-82
2023/10/22 03:03:40;;;;;;;2.00;1.80;;;;;;;7.58;100.00;96536.00;4998152;28;20453;-81
2023/10/22 03:06:09;;;;;;;2.20;1.90;;;;;;;7.58;100.00;96543.09;4997414;28;20855;-82
2023/10/22 03:08:37;;;;;;;3.40;1.90;;;;;;;7.56;100.00;96543.34;4997208;28;20798;-81
2023/10/22 03:11:04;;;;;;;2.05;1.85;;;;;;;7.55;100.00;96544.38;4997056;28;20891;-82
2023/10/22 03:13:31;;;;;;;8.17;2.27;;;;;;;7.53;100.00;96553.56;4997165;28;20856;-82
2023/10/22 03:16:05;;;;;;;2.78;2.00;;;;;;;7.52;100.00;96555.41;4997542;28;20464;-81
2023/10/22 03:18:31;;;;;;;3.60;2.15;;;;;;;7.50;100.00;96564.63;4997300;28;20411;-81
2023/10/22 03:20:57;;;;;;;2.28;1.95;;;;;;;7.51;100.00;96568.84;5004259;28;20437;-81
2023/10/22 03:23:25;;;;;;;2.60;1.90;;;;;;;7.49;100.00;96571.72;5003563;28;20879;-81
2023/10/22 03:25:51;;;;;;;2.60;1.75;;;;;;;7.48;100.00;96579.88;5004286;28;20395;-81
2023/10/22 03:28:18;;;;;;;2.22;2.00;;;;;;;7.47;100.00;96578.28;5004803;28;20395;-82
2023/10/22 03:30:44;;;;;;;2.03;1.70;;;;;;;7.46;100.00;96581.97;5005102;28;20764;-81
2023/10/22 03:33:10;;;;;;;3.30;1.90;;;;;;;7.43;100.00;96574.56;5014759;28;20786;-81
2023/10/22 03:35:36;;;;;;;1.98;1.73;;;;;;;7.41;100.00;96574.03;5022247;28;20412;-81
2023/10/22 03:38:03;;;;;;;3.80;1.90;;;;;;;7.38;100.00;96576.09;5022018;28;20400;-81
2023/10/22 03:40:33;;;;;;;2.88;1.80;;;;;;;7.38;100.00;96572.69;5022129;28;20911;-81
2023/10/22 03:42:59;;;;;;;2.20;1.80;;;;;;;7.36;100.00;96574.78;5010531;28;20410;-81
2023/10/22 03:45:25;;;;;;;2.78;1.83;;;;;;;7.34;100.00;96574.22;5002456;28;20517;-81
2023/10/22 03:47:52;;;;;;;2.10;1.85;;;;;;;7.34;100.00;96574.22;5002084;28;20398;-82
2023/10/22 03:50:18;;;;;;;2.15;1.83;;;;;;;7.31;100.00;96572.88;5002421;28;20414;-82
2023/10/22 03:52:44;;;;;;;2.05;1.88;;;;;;;7.31;100.00;96574.72;5001050;28;20406;-82
2023/10/22 03:55:10;;;;;;;2.88;2.00;;;;;;;7.28;100.00;96573.41;5002112;28;20406;-82
2023/10/22 03:57:38;;;;;;;3.10;2.08;;;;;;;7.27;100.00;96576.28;5005194;28;20406;-81
2023/10/22 04:00:07;;;;;;;3.22;1.98;;;;;;;7.26;100.00;96582.56;5002987;28;20414;-81
2023/10/22 04:02:33;;;;;;;2.72;2.00;;;;;;;7.24;100.00;96587.28;5002041;28;20409;-82
2023/10/22 04:04:59;;;;;;;3.37;2.00;;;;;;;7.23;100.00;96583.06;5002313;28;20399;-81
2023/10/22 04:07:26;;;;;;;2.05;1.75;;;;;;;7.23;100.00;96593.59;5002946;28;20415;-82
2023/10/22 04:09:52;;;;;;;2.00;1.80;;;;;;;7.22;100.00;96590.16;5004022;28;20687;-81
2023/10/22 04:12:18;;;;;;;2.70;2.10;;;;;;;7.21;100.00;96595.69;5005288;28;20395;-81
2023/10/22 04:14:45;;;;;;;2.95;2.00;;;;;;;7.21;100.00;96591.22;5007976;28;20809;-81
2023/10/22 04:17:11;;;;;;;3.10;1.90;;;;;;;7.21;100.00;96596.50;5015587;28;20410;-81
2023/10/22 04:19:37;;;;;;;1.85;1.60;;;;;;;7.22;100.00;96595.44;5015325;28;20426;-82
2023/10/22 04:22:04;;;;;;;2.70;1.80;;;;;;;7.22;100.00;96598.06;5018839;28;20435;-81
2023/10/22 04:24:30;;;;;;;2.30;2.00;;;;;;;7.21;100.00;96595.69;5016792;28;20398;-81
2023/10/22 04:26:57;;;;;;;1.73;1.63;;;;;;;7.21;100.00;96600.97;5012627;28;20434;-81
2023/10/22 04:29:23;;;;;;;2.53;1.75;;;;;;;7.18;100.00;96599.63;5007333;28;20488;-81
2023/10/22 04:31:50;;;;;;;2.20;1.90;;;;;;;7.18;100.00;96604.88;5004618;28;20467;-82
2023/10/22 04:34:18;;;;;;;2.00;1.75;;;;;;;7.17;100.00;96605.13;5009891;28;20424;-82
2023/10/22 04:36:44;;;;;;;3.33;1.77;;;;;;;7.16;100.00;96606.97;5011398;28;20471;-81
2023/10/22 04:39:10;;;;;;;2.97;2.17;;;;;;;7.15;100.00;96600.09;5011733;28;20450;-82
2023/10/22 04:41:38;;;;;;;2.58;1.90;;;;;;;7.15;100.00;96601.94;5021456;28;21278;-82
2023/10/22 04:44:05;;;;;;;2.42;2.20;;;;;;;7.15;100.00;96607.19;5011721;28;20413;-82
2023/10/22 04:46:31;;;;;;;2.10;1.90;;;;;;;7.13;100.00;96607.47;5007884;28;20398;-83
2023/10/22 04:48:59;;;;;;;3.13;1.95;;;;;;;7.14;100.00;96608.28;5007696;28;20454;-83
2023/10/22 04:51:25;;;;;;;2.30;2.03;;;;;;;7.11;100.00;96612.19;5006035;28;20432;-81
2023/10/22 04:53:51;;;;;;;3.22;2.20;;;;;;;7.12;100.00;96613.78;5000288;28;20445;-81
2023/10/22 04:56:17;;;;;;;2.10;2.00;;;;;;;7.11;100.00;96625.34;5008955;28;20410;-80
2023/10/22 04:58:43;;;;;;;3.87;2.00;;;;;;;7.10;100.00;96615.84;5008847;28;20427;-80
2023/10/22 05:01:10;;;;;;;2.40;1.95;;;;;;;7.11;100.00;96620.06;5008670;28;20409;-81
2023/10/22 05:03:36;;;;;;;2.45;2.20;;;;;;;7.11;100.00;96627.97;5005111;28;20478;-83
2023/10/22 05:06:07;;;;;;;2.42;2.10;;;;;;;7.09;100.00;96624.78;5007148;28;20448;-82
2023/10/22 05:08:34;;;;;;;2.85;2.00;;;;;;;7.09;100.00;96626.63;5009976;28;20410;-82
2023/10/22 05:11:04;;;;;;;3.65;2.10;;;;;;;7.06;100.00;96635.03;5009447;28;20445;-82
2023/10/22 05:13:30;;;;;;;2.15;1.98;;;;;;;7.06;100.00;96637.66;5008205;28;20410;-83
2023/10/22 05:15:56;;;;;;;2.07;1.87;;;;;;;7.03;100.00;96632.88;5012696;28;20766;-80
2023/10/22 05:18:23;;;;;;;2.60;2.30;;;;;;;7.01;100.00;96633.09;5011162;28;20407;-83
2023/10/22 05:20:49;;;;;;;1.88;1.70;;;;;;;7.00;100.00;96632.31;5005461;28;20421;-82
2023/10/22 05:23:16;;;;;;;2.20;1.93;;;;;;;7.00;100.00;96639.41;5003739;28;20603;-80
2023/10/22 05:25:43;;;;;;;2.20;2.00;;;;;;;7.00;100.00;96639.41;5010346;28;20872;-82
2023/10/22 05:28:09;;;;;;;3.55;2.08;;;;;;;7.02;100.00;96641.81;5018502;28;20885;-82
2023/10/22 05:30:35;;;;;;;2.37;1.90;;;;;;;6.99;100.00;96641.25;5018770;28;20393;-82
2023/10/22 05:33:01;;;;;;;2.58;2.00;;;;;;;6.99;100.00;96643.09;5001741;28;20414;-82
2023/10/22 05:35:27;;;;;;;1.80;1.70;;;;;;;6.99;100.00;96638.59;5019037;28;20396;-83
2023/10/22 05:37:54;;;;;;;2.40;1.90;;;;;;;7.02;100.00;96650.50;5017877;28;20773;-80
2023/10/22 05:40:21;;;;;;;2.35;1.95;;;;;;;7.04;100.00;96656.31;5023829;28;20893;-82
2023/10/22 05:42:47;;;;;;;3.35;2.30;;;;;;;7.07;100.00;96660.28;5025499;28;20407;-82
2023/10/22 05:45:13;;;;;;;3.63;2.10;;;;;;;7.07;100.00;96653.16;5009184;28;20406;-83
2023/10/22 05:47:39;;;;;;;2.63;2.00;;;;;;;7.04;100.00;96661.56;5009537;28;20413;-82
2023/10/22 05:50:07;;;;;;;2.70;2.00;;;;;;;7.04;100.00;96661.56;5008639;28;20421;-83
2023/10/22 05:52:34;;;;;;;3.42;2.08;;;;;;;7.03;100.00;96662.63;5009153;28;20402;-82
2023/10/22 05:55:00;;;;;;;3.95;1.92;;;;;;;7.03;100.00;96670.50;5014787;28;20396;-82
2023/10/22 05:57:28;;;;;;;3.10;1.75;;;;;;;7.04;100.00;96676.56;5016707;28;20433;-83
2023/10/22 05:59:57;;;;;;;2.78;2.10;;;;;;;7.03;100.00;96675.75;5007051;28;20425;-83
2023/10/22 06:02:23;;;;;;;2.15;1.77;;;;;;;7.04;100.00;96673.94;5007040;28;20410;-82
2023/10/22 06:04:49;;;;;;;2.17;1.95;;;;;;;7.01;100.00;96680.47;5005535;28;20502;-82
2023/10/22 06:07:15;;;;;;;3.85;1.92;;;;;;;7.01;100.00;96683.09;5006618;28;20434;-81
2023/10/22 06:09:42;;;;;;;2.90;1.80;;;;;;;7.03;100.00;96672.34;5006158;28;20425;-81
2023/10/22 06:12:08;;;;;;;2.50;1.80;;;;;;;7.05;100.00;96680.78;5005338;28;20759;-81
2023/10/22 06:14:36;;;;;;;2.08;1.88;;;;;;;7.06;100.00;96679.75;5002893;28;20438;-81
2023/10/22 06:17:02;;;;;;;2.50;1.97;;;;;;;7.05;100.00;96683.41;5019324;28;20401;-80
2023/10/22 06:19:28;;;;;;;3.42;2.10;;;;;;;7.04;100.00;96682.63;5008629;28;20732;-79
2023/10/22 06:21:54;;;;;;;3.20;1.90;;;;;;;7.05;100.00;96686.84;5007686;28;20418;-82
2023/10/22 06:24:21;;;;;;;2.67;1.92;;;;;;;7.06;100.00;96692.91;5022475;28;20400;-79
2023/10/22 06:26:47;;;;;;;5.38;2.10;;;;;;;7.09;100.00;96700.31;5002453;28;20546;-82
2023/10/22 06:29:14;;;;;;;2.75;1.65;;;;;;;7.09;100.00;96705.56;4999485;28;20871;-83
2023/10/22 06:31:42;;;;;;;2.38;1.80;;;;;;;7.11;100.00;96703.50;5000286;28;20487;-82
2023/10/22 06:34:08;;;;;;;2.10;1.90;;;;;;;7.13;100.00;96704.84;5018091;28;20404;-80
2023/10/22 06:36:34;;;;;;;3.30;1.70;;;;;;;7.16;100.00;96699.06;5017900;28;20393;-81
2023/10/22 06:39:00;;;;;;;1.98;1.40;;;;;;;7.23;100.00;96712.03;5018586;28;20434;-78
2023/10/22 06:41:26;;;;;;;5.07;1.88;;;;;;;7.34;100.00;96721.66;5018325;28;20409;-81
2023/10/22 06:43:53;;;;;;;2.47;1.50;;;;;;;7.39;100.00;96717.25;5010927;28;20426;-80
2023/10/22 06:46:20;;;;;;;3.75;1.88;;;;;;;7.42;100.00;96730.97;5001978;28;20406;-83
2023/10/22 06:48:48;;;;;;;2.05;1.40;;;;;;;7.44;100.00;96732.31;5005423;28;20851;-84
2023/10/22 06:51:15;;;;;;;6.07;2.00;;;;;;;7.49;100.00;96735.00;5009722;28;20438;-83
2023/10/22 06:53:43;;;;;;;1.88;1.50;;;;;;;7.55;100.00;96736.63;5006400;28;20407;-81
2023/10/22 06:56:11;;;;;;;4.45;1.80;;;;;;;7.61;100.00;96734.84;5005262;28;20411;-82
2023/10/22 06:58:38;;;;;;;4.07;1.73;;;;;;;7.67;100.00;96742.53;5016855;28;20417;-80
2023/10/22 07:01:05;;;;;;;2.20;1.40;;;;;;;7.73;100.00;96738.94;5011001;28;20414;-80
2023/10/22 07:03:32;;;;;;;2.90;1.63;;;;;;;7.77;100.00;96736.59;5003405;28;20493;-81
2023/10/22 07:06:00;;;;;;;3.58;1.40;;;;;;;7.82;100.00;96741.91;5005101;28;20438;-81
2023/10/22 07:08:26;;;;;;;2.35;1.73;;;;;;;7.89;100.00;96744.38;4992577;28;20912;-80
2023/10/22 07:10:52;;;;;;;1.83;1.35;;;;;;;7.98;100.00;96753.38;5008403;28;20427;-81
2023/10/22 07:13:20;;;;;;;3.67;1.40;;;;;;;8.09;100.00;96753.25;5010505;28;20428;-80
2023/10/22 07:15:46;;;;;;;7.05;2.10;;;;;;;8.20;100.00;96750.66;5007297;28;20414;-80
2023/10/22 07:18:13;;;;;;;3.15;1.23;;;;;;;8.35;100.00;96762.16;5009485;28;20433;-81
2023/10/22 07:20:39;;;;;;;4.22;1.70;;;;;;;8.47;100.00;96759.38;5013766;28;20805;-81
2023/10/22 07:23:07;;;;;;;2.75;1.40;;;;;;;8.59;100.00;96756.53;5026638;28;20401;-81
2023/10/22 07:25:33;;;;;;;5.00;1.30;;;;;;;8.75;100.00;96764.31;5027344;28;20432;-81
2023/10/22 07:27:59;;;;;;;6.22;1.50;;;;;;;8.94;100.00;96762.06;5022151;28;20484;-82
2023/10/22 07:30:26;;;;;;;3.70;1.50;;;;;;;9.05;100.00;96754.97;5020399;28;20442;-83
2023/10/22 07:32:53;;;;;;;4.30;1.42;;;;;;;9.21;100.00;96761.94;5011623;28;20401;-81
2023/10/22 07:35:20;;;;;;;8.32;2.10;;;;;;;9.42;100.00;96760.97;5006885;28;20413;-82
2023/10/22 07:37:46;;;;;;;7.30;2.00;;;;;;;9.55;100.00;96763.13;5004364;28;20483;-80
2023/10/22 07:40:15;;;;;;;7.28;1.70;;;;;;;9.67;100.00;96765.53;5010969;28;20422;-82
2023/10/22 07:42:41;;;;;;;8.40;2.15;;;;;;;9.94;100.00;96760.03;5003869;28;20434;-83
2023/10/22 07:45:08;;;;;;;1.92;1.08;;;;;;;10.13;100.00;96768.28;5009943;28;20401;-80
2023/10/22 07:47:35;;;;;;;5.80;1.33;;;;;;;10.24;100.00;96770.69;5013383;28;20418;-80
2023/10/22 07:50:01;;;;;;;3.83;1.27;;;;;;;10.35;100.00;96779.44;5012475;28;20470;-80
2023/10/22 07:52:28;;;;;;;3.13;1.30;;;;;;;10.55;100.00;96779.44;5009057;28;20417;-82
2023/10/22 07:54:55;;;;;;;6.03;1.70;;;;;;;10.64;100.00;96785.78;5015269;28;20409;-80
2023/10/22 07:57:22;;;;;;;3.63;1.00;;;;;;;10.83;100.00;96789.47;5015121;28;20397;-81
2023/10/22 07:59:48;;;;;;;6.90;1.70;;;;;;;10.78;100.00;96786.84;5008495;28;20437;-80
2023/10/22 08:02:14;;;;;;;4.33;1.57;;;;;;;11.11;100.00;96792.63;5016886;28;20420;-81
2023/10/22 08:04:41;;;;;;;4.00;1.30;;;;;;;11.23;100.00;96799.19;5009116;28;20441;-81
2023/10/22 08:07:07;;;;;;;3.22;1.30;;;;;;;11.31;100.00;96807.66;5010761;28;20396;-80
2023/10/22 08:09:34;;;;;;;3.05;1.13;;;;;;;11.49;100.00;96810.53;5012496;28;20414;-81
2023/10/22 08:12:00;;;;;;;6.15;1.33;;;;;;;11.45;100.00;96801.50;5018271;28;20413;-80
2023/10/22 08:14:27;;;;;;;1.88;1.20;;;;;;;11.76;100.00;96818.13;5009378;28;20493;-82
2023/10/22 08:16:59;;;;;;;6.05;1.48;;;;;;;11.83;100.00;96820.47;5015988;28;20414;-80
2023/10/22 08:19:25;;;;;;;6.93;1.38;;;;;;;11.89;100.00;96803.47;5011414;28;20426;-81
2023/10/22 08:21:51;;;;;;;4.15;1.10;;;;;;;12.12;100.00;96816.09;5012346;28;20445;-82
2023/10/22 08:24:18;;;;;;;4.95;1.50;;;;;;;12.16;100.00;96809.19;5004990;28;20407;-80
2023/10/22 08:26:44;;;;;;;7.60;1.40;;;;;;;12.27;100.00;96816.00;5004107;28;20398;-81
2023/10/22 08:29:10;;;;;;;3.80;1.60;;;;;;;12.30;100.00;96823.41;5012784;28;20470;-80
2023/10/22 08:31:37;;;;;;;6.38;1.30;;;;;;;12.45;100.00;96817.22;5007307;28;20437;-82
2023/10/22 08:34:04;;;;;;;7.95;2.40;;;;;;;12.53;100.00;96819.28;5011601;28;20400;-81
2023/10/22 08:36:30;;;;;;;3.65;1.17;;;;;;;12.70;100.00;96824.19;5012848;28;20425;-80
2023/10/22 08:38:56;;;;;;;2.42;1.27;;;;;;;13.03;100.00;96841.16;5009307;28;20422;-81
2023/10/22 08:41:25;;;;;;;5.25;1.33;;;;;;;13.06;100.00;96838.75;5008013;28;20399;-81
2023/10/22 08:43:52;;;;;;;5.93;1.60;;;;;;;13.27;100.00;96844.69;5004008;28;20907;-81
2023/10/22 08:46:18;;;;;;;5.00;1.13;;;;;;;13.10;100.00;96846.94;5002376;28;20473;-80
2023/10/22 08:48:46;;;;;;;4.82;1.23;;;;;;;13.06;100.00;96835.31;5019169;28;20389;-79
2023/10/22 08:51:12;;;;;;;6.53;1.65;;;;;;;13.00;100.00;96834.56;5026279;28;20797;-79
2023/10/22 08:53:38;;;;;;;5.65;1.80;;;;;;;12.85;100.00;96828.59;5017470;28;20574;-83
2023/10/22 08:56:05;;;;;;;8.68;1.70;;;;;;;12.79;100.00;96836.59;4999764;28;20448;-82
2023/10/22 08:58:32;;;;;;;5.13;1.37;;;;;;;12.91;100.00;96844.19;5001414;28;20406;-82
2023/10/22 09:00:58;;;;;;;5.95;1.40;;;;;;;12.90;100.00;96839.16;5004487;28;20406;-82
2023/10/22 09:03:26;;;;;;;6.03;1.50;;;;;;;13.03;100.00;96846.47;5016255;28;20459;-82
2023/10/22 09:05:53;;;;;;;6.60;1.80;;;;;;;13.01;100.00;96838.78;5011283;28;20915;-83
2023/10/22 09:08:20;;;;;;;5.15;1.48;;;;;;;13.20;100.00;96841.56;5017194;28;20448;-83
2023/10/22 09:10:46;;;;;;;4.97;1.38;;;;;;;13.38;100.00;96848.81;5007147;28;20414;-83
2023/10/22 09:13:14;;;;;;;9.27;1.63;;;;;;;13.38;100.00;96830.22;5013951;28;20386;-82
2023/10/22 09:15:41;;;;;;;6.18;1.60;;;;;;;13.67;100.00;96832.84;5006728;28;20407;-83
2023/10/22 09:18:08;;;;;;;5.20;1.50;;;;;;;13.97;100.00;96837.00;5013042;28;20402;-82
2023/10/22 09:20:35;;;;;;;7.78;1.48;;;;;;;14.26;100.00;96832.34;5007405;28;20422;-83
2023/10/22 09:23:19;;;;;;;3.95;1.20;;;;;;;14.69;100.00;96841.03;5012919;28;20406;-83
2023/10/22 09:25:46;;;;;;;4.03;1.33;;;;;;;15.05;100.00;96822.59;5014870;28;20755;-81
2023/10/22 09:28:14;;;;;;;6.47;1.52;;;;;;;15.64;100.00;96817.53;5001053;28;20411;-82
2023/10/22 09:30:42;;;;;;;6.20;1.50;;;;;;;15.97;100.00;96819.00;5012195;28;20401;-83
2023/10/22 09:33:09;;;;;;;3.03;1.10;;;;;;;16.46;100.00;96823.56;5006513;28;20466;-81
2023/10/22 09:35:36;;;;;;;7.22;1.60;;;;;;;16.58;100.00;96812.31;5005773;28;20422;-80
2023/10/22 09:38:02;;;;;;;5.15;1.60;;;;;;;16.36;100.00;96804.28;5010049;28;20797;-83
2023/10/22 09:40:34;;;;;;;3.92;1.23;;;;;;;16.49;100.00;96804.22;5013574;28;20419;-81
2023/10/22 09:43:02;;;;;;;4.18;1.20;;;;;;;16.80;100.00;96809.69;5010378;28;20402;-81
2023/10/22 09:45:30;;;;;;;5.40;1.35;;;;;;;17.12;100.00;96800.59;5013751;28;20394;-80
2023/10/22 09:48:01;;;;;;;5.53;1.23;;;;;;;17.16;100.00;96811.44;5010786;28;20467;-81
2023/10/22 09:50:30;;;;;;;5.60;1.10;;;;;;;17.57;100.00;96806.59;5009604;28;20834;-82
2023/10/22 09:52:59;;;;;;;4.90;1.30;;;;;;;17.84;100.00;96816.31;5016843;28;20434;-85
2023/10/22 09:55:25;;;;;;;3.15;0.80;;;;;;;18.44;100.00;96815.63;5008287;28;20406;-79
2023/10/22 09:57:53;;;;;;;5.70;1.48;;;;;;;18.89;100.00;96813.41;5003514;28;20457;-82
2023/10/22 10:00:20;;;;;;;5.43;1.37;;;;;;;18.71;100.00;96807.28;5003640;28;20430;-80
2023/10/22 10:02:47;;;;;;;3.72;1.45;;;;;;;18.28;100.00;96817.19;5002707;28;20399;-82
2023/10/22 10:05:14;;;;;;;5.18;1.35;;;;;;;18.04;100.00;96823.75;5003435;28;20400;-84
2023/10/22 10:07:41;;;;;;;4.88;1.30;;;;;;;17.77;100.00;96824.81;5009068;28;20430;-87
2023/10/22 10:10:08;;;;;;;2.95;1.27;;;;;;;17.53;100.00;96831.59;5008417;28;20408;-84
2023/10/22 10:12:38;;;;;;;3.55;1.10;;;;;;;17.30;100.00;96831.66;5011727;28;20402;-85
2023/10/22 10:15:07;;;;;;;4.10;1.02;;;;;;;16.87;100.00;96817.25;5009445;28;20405;-86
2023/10/22 10:17:54;;;;;;;4.38;1.23;;;;;;;16.37;100.00;96824.56;5003531;28;20405;-85
2023/10/22 10:20:27;;;;;;;4.32;1.27;;;;;;;15.71;100.00;96817.97;5009661;28;20469;-85
2023/10/22 10:23:04;;;;;;;2.75;0.95;;;;;;;15.11;100.00;96829.41;4999944;28;20890;-84
2023/10/22 10:25:32;;;;;;;6.30;1.75;;;;;;;14.65;100.00;96829.41;5014628;28;20394;-83
2023/10/22 10:28:05;;;;;;;4.47;1.20;;;;;;;14.34;100.00;96821.03;5017170;28;20405;-85
2023/10/22 10:30:33;;;;;;;4.72;1.40;;;;;;;14.33;100.00;96826.66;5012305;28;20398;-84
2023/10/22 10:33:00;;;;;;;3.70;1.20;;;;;;;14.31;100.00;96823.47;5020560;28;20402;-86
2023/10/22 10:35:28;;;;;;;3.25;1.30;;;;;;;14.42;100.00;96830.28;5016790;28;20421;-83
2023/10/22 10:38:17;;;;;;;5.82;1.60;;;;;;;14.56;100.00;96825.00;5015718;28;20398;-83
2023/10/22 10:40:44;;;;;;;7.13;1.50;;;;;;;14.52;100.00;96829.31;5014543;28;20815;-85
2023/10/22 10:43:10;;;;;;;7.07;1.50;;;;;;;14.77;100.00;96826.28;5010705;28;20445;-85
2023/10/22 10:45:43;;;;;;;8.30;1.95;;;;;;;15.01;100.00;96829.59;5006622;28;20493;-81
2023/10/22 10:48:44;;;;;;;8.77;1.80;;;;;;;15.38;100.00;96823.34;4987582;28;20398;-85
2023/10/22 10:51:18;;;;;;;4.75;1.60;;;;;;;15.91;100.00;96828.22;5007281;28;20403;-84
2023/10/22 10:54:14;;;;;;;2.92;1.00;;;;;;;16.32;100.00;96820.13;5004947;28;20458;-82
2023/10/22 10:56:55;;;;;;;6.30;1.10;;;;;;;16.82;100.00;96828.09;5009492;28;20437;-85
2023/10/22 10:59:35;;;;;;;4.32;1.27;;;;;;;17.02;100.00;96827.59;5012051;28;20426;-85
2023/10/22 11:02:10;;;;;;;1.73;0.90;;;;;;;16.97;100.00;96817.81;5011959;28;20406;-85
2023/10/22 11:04:38;;;;;;;4.18;1.30;;;;;;;16.85;100.00;96811.44;5016438;28;20405;-85
2023/10/22 11:07:05;;;;;;;5.05;1.40;;;;;;;16.62;100.00;96813.31;5014395;28;20413;-84
2023/10/22 11:09:33;;;;;;;5.33;1.60;;;;;;;16.60;100.00;96818.16;5014648;28;20949;-83
2023/10/22 11:12:05;;;;;;;5.18;1.63;;;;;;;16.35;100.00;96818.72;5001825;28;20417;-79
2023/10/22 11:14:32;;;;;;;4.75;1.30;;;;;;;16.18;100.00;96816.69;5011213;28;20394;-81
2023/10/22 11:16:58;;;;;;;5.27;1.20;;;;;;;16.06;100.00;96814.56;5009630;28;20396;-82
2023/10/22 11:19:28;;;;;;;6.10;1.33;;;;;;;16.02;100.00;96818.91;5004710;28;20473;-82
2023/10/22 11:21:54;;;;;;;7.53;1.30;;;;;;;16.12;100.00;96817.91;5003899;28;20453;-80
2023/10/22 11:24:23;;;;;;;4.00;1.33;;;;;;;16.34;100.00;96814.47;5002540;28;20409;-81
2023/10/22 11:26:50;;;;;;;5.65;1.30;;;;;;;16.33;100.00;96813.69;5015094;28;20409;-82
2023/10/22 11:29:17;;;;;;;4.63;1.30;;;;;;;16.70;100.00;96811.78;5011223;28;20988;-83
2023/10/22 11:31:57;;;;;;;3.20;1.15;;;;;;;16.94;100.00;96797.03;5010531;28;20385;-82
2023/10/22 11:34:25;;;;;;;8.10;1.50;;;;;;;16.68;100.00;96798.75;5009390;28;20414;-82